Data for 10/08/2010

Time Sea-Level Adjusted Pressure Absolute Pressure Temperature Relative Humidity Dew Point   
(mb) (inHg) (mb) (inHg) (C) (F) (%) (C) (F)
00:05 1018 30.06 847 25.01 12.8 55 49 2.3 36.1
00:10 1018 30.06 847 25.01 12.6 54.7 47 1.8 35.2
00:15 1018 30.06 847 25.01 12.7 54.8 47 1.6 34.9
00:20 1018 30.06 847 25.01 12.9 55.2 46 1.7 35.1
00:25 1018 30.06 847 25.01 12.8 55.1 47 1.9 35.5
00:30 1018 30.06 847 25.01 12.8 55.1 47 1.9 35.3
00:35 1018 30.06 847 25.01 12.9 55.2 46 1.8 35.2
00:40 1018 30.06 847 25.01 12.9 55.2 48 2.1 35.9
00:45 1018 30.06 847 25.01 12.6 54.7 49 2.4 36.2
00:50 1018 30.06 847 25.01 12.5 54.6 49 2.2 36
00:55 1018 30.06 847 25.01 12.7 54.8 47 1.6 34.9
01:00 1018 30.06 847 25.01 12.8 55 47 1.8 35.2
01:05 1018 30.06 847 25.01 12.8 55 47 1.9 35.4
01:10 1018 30.06 847 25.01 12.9 55.2 48 2.3 36.1
01:15 1017 30.03 847 25.01 12.7 54.9 49 2.3 36.2
01:20 1017 30.03 847 25.01 12.7 54.8 49 2.2 36
01:25 1017 30.03 847 25.01 12.6 54.7 49 2.4 36.2
01:30 1017 30.03 847 25.01 12.3 54.2 51 2.4 36.4
01:35 1017 30.03 847 25.01 11.9 53.4 53 2.7 36.8
01:40 1017 30.03 847 25.01 11.7 53 53 2.5 36.5
01:45 1017 30.03 847 25.01 11.4 52.5 55 2.6 36.7
01:50 1017 30.03 847 25.01 11.4 52.6 54 2.4 36.4
01:55 1018 30.06 847 25.01 11.4 52.5 54 2.5 36.6
02:00 1018 30.06 847 25.01 11.5 52.7 54 2.6 36.7
02:05 1018 30.06 847 25.01 11.5 52.7 55 2.7 36.9
02:10 1018 30.06 847 25.01 11.4 52.5 55 2.7 36.9
02:15 1018 30.06 847 25.01 11.3 52.3 56 2.9 37.2
02:20 1018 30.06 847 25.01 11.1 52 58 3.1 37.6
02:25 1018 30.06 847 25.01 11 51.8 55 2.4 36.4
02:30 1018 30.06 848 25.04 11.2 52.2 56 2.7 36.9
02:35 1018 30.06 848 25.04 11.4 52.4 55 2.8 37
02:40 1018 30.06 848 25.04 11.4 52.4 55 2.6 36.7
02:45 1018 30.06 848 25.04 11.4 52.5 55 2.7 36.8
02:50 1018 30.06 847 25.01 11.4 52.4 55 2.7 36.9
02:55 1018 30.06 847 25.01 11.4 52.4 55 2.7 36.9
03:00 1018 30.06 847 25.01 11.3 52.3 55 2.6 36.6
03:05 1018 30.06 847 25.01 11.2 52.2 55 2.6 36.7
03:10 1018 30.06 847 25.01 11.1 52 57 3.1 37.5
03:15 1018 30.06 847 25.01 10.7 51.2 59 3.1 37.6
03:20 1018 30.06 847 25.01 10.5 51 59 2.8 37.1
03:25 1018 30.06 847 25.01 10.6 51.1 58 2.8 37.1
03:30 1018 30.06 847 25.01 10.6 51 60 3.1 37.5
03:35 1018 30.06 847 25.01 10.2 50.4 61 3.2 37.8
03:40 1018 30.06 847 25.01 10.1 50.3 60 2.8 37.1
03:45 1018 30.06 847 25.01 10.1 50.2 61 3 37.4
03:50 1018 30.06 847 25.01 10 49.9 60 2.6 36.7
03:55 1018 30.06 847 25.01 10.1 50.2 58 2.4 36.3
04:00 1018 30.06 847 25.01 10.2 50.4 60 2.9 37.2
04:05 1018 30.06 847 25.01 9.9 49.9 61 2.9 37.2
04:10 1018 30.06 847 25.01 9.7 49.4 60 2.3 36.2
04:15 1018 30.06 847 25.01 9.7 49.4 61 2.5 36.6
04:20 1018 30.06 847 25.01 9.2 48.6 61 2.2 35.9
04:25 1018 30.06 847 25.01 8.8 47.9 62 2.1 35.7
04:30 1018 30.06 847 25.01 8.7 47.7 63 2.1 35.8
04:35 1018 30.06 847 25.01 8.5 47.3 64 2.1 35.7
04:40 1018 30.06 848 25.04 8.3 47 64 1.9 35.5
04:45 1018 30.06 848 25.04 8.2 46.7 63 1.6 34.9
04:50 1018 30.06 848 25.04 8.3 46.9 62 1.5 34.7
04:55 1018 30.06 848 25.04 8.4 47 61 1.4 34.5
05:00 1019 30.09 848 25.04 8.6 47.4 60 1.3 34.4
05:05 1018 30.06 848 25.04 8.9 47.9 61 1.7 35
05:10 1018 30.06 848 25.04 8.9 48 60 1.7 35
05:15 1018 30.06 848 25.04 8.8 47.9 61 1.7 35.1
05:20 1019 30.09 848 25.04 8.4 47 63 1.8 35.3
05:25 1019 30.09 848 25.04 8.1 46.5 64 1.8 35.2
05:30 1019 30.09 848 25.04 7.9 46.2 65 1.8 35.3
05:35 1019 30.09 848 25.04 8 46.5 65 1.8 35.2
05:40 1019 30.09 848 25.04 8.1 46.6 65 1.9 35.5
05:45 1019 30.09 848 25.04 8.4 47.1 64 2 35.6
05:50 1019 30.09 848 25.04 8.5 47.3 63 2 35.5
05:55 1019 30.09 848 25.04 8.4 47.2 64 2.1 35.8
06:00 1019 30.09 848 25.04 8.4 47.1 64 1.9 35.5
06:05 1019 30.09 848 25.04 8.4 47.2 64 2 35.5
06:10 1019 30.09 848 25.04 8.4 47.2 64 2 35.6
06:15 1019 30.09 848 25.04 8.5 47.3 63 2 35.5
06:20 1019 30.09 848 25.04 8.6 47.5 62 1.8 35.3
06:25 1019 30.09 848 25.04 8.6 47.4 62 1.7 35.1
06:30 1019 30.09 848 25.04 8.7 47.6 61 1.7 35
06:35 1019 30.09 848 25.04 8.8 47.9 62 1.9 35.5
06:40 1019 30.09 848 25.04 8.9 48 61 1.9 35.3
06:45 1019 30.09 848 25.04 9.1 48.3 61 1.9 35.5
06:50 1019 30.09 848 25.04 9 48.1 62 2 35.7
06:55 1019 30.09 848 25.04 9 48.1 61 1.8 35.2
07:00 1019 30.09 848 25.04 9.1 48.4 61 1.9 35.4
07:05 1019 30.09 848 25.04 9.2 48.5 60 1.9 35.5
07:10 1019 30.09 848 25.04 9 48.2 61 2 35.6
07:15 1019 30.09 848 25.04 9 48.2 62 2 35.7
07:20 1019 30.09 848 25.04 8.9 47.9 62 2 35.6
07:25 1019 30.09 848 25.04 8.8 47.9 62 2 35.6
07:30 1019 30.09 848 25.04 8.4 47.1 65 2.1 35.8
07:35 1019 30.09 848 25.04 8.2 46.8 64 1.8 35.3
07:40 1019 30.09 849 25.07 8.2 46.8 65 2.1 35.7
07:45 1019 30.09 849 25.07 8.2 46.8 64 1.8 35.2
07:50 1020 30.12 849 25.07 8.3 46.9 64 2 35.6
07:55 1020 30.12 849 25.07 7.9 46.3 66 2 35.6
08:00 1020 30.12 849 25.07 7.8 46.1 65 1.6 35
08:05 1019 30.09 849 25.07 8 46.4 64 1.7 35
08:10 1020 30.12 849 25.07 8 46.3 65 1.7 35.1
08:15 1020 30.12 849 25.07 7.9 46.3 66 1.9 35.4
08:20 1020 30.12 849 25.07 7.8 46 66 1.9 35.3
08:25 1020 30.12 849 25.07 8 46.3 65 1.9 35.4
08:30 1020 30.12 849 25.07 8.2 46.7 65 2.1 35.7
08:35 1020 30.12 849 25.07 8.3 46.9 65 2.1 35.7
08:40 1020 30.12 849 25.07 8.5 47.3 65 2.2 36
08:45 1020 30.12 849 25.07 8.4 47 65 2.3 36.1
08:50 1020 30.12 849 25.07 8.3 46.9 66 2.4 36.3
08:55 1020 30.12 849 25.07 8.4 47.2 65 2.3 36.2
09:00 1020 30.12 849 25.07 8.9 48 63 2.4 36.2
09:05 1020 30.12 849 25.07 9.1 48.4 63 2.5 36.5
09:10 1020 30.12 849 25.07 9.4 48.9 62 2.5 36.6
09:15 1020 30.12 849 25.07 9.4 48.8 65 3.1 37.6
09:20 1020 30.12 849 25.07 8.8 47.9 66 2.8 37.1
09:25 1020 30.12 849 25.07 9 48.2 64 2.6 36.7
09:30 1020 30.12 849 25.07 9.5 49.1 63 2.9 37.2
09:35 1020 30.12 849 25.07 9.8 49.6 63 3.1 37.5
09:40 1020 30.12 849 25.07 10.1 50.1 64 3.5 38.3
09:45 1020 30.12 849 25.07 10.4 50.7 63 3.6 38.5
09:50 1020 30.12 849 25.07 10.7 51.2 62 3.7 38.7
09:55 1020 30.12 849 25.07 11.1 52.1 60 3.7 38.6
10:00 1020 30.12 849 25.07 11.5 52.7 60 4.1 39.3
10:05 1020 30.12 849 25.07 11.7 53 59 3.9 39.1
10:10 1020 30.12 849 25.07 12 53.6 57 3.8 38.9
10:15 1020 30.12 849 25.07 12.3 54.2 57 4 39.2
10:20 1020 30.12 849 25.07 12.7 54.9 51 3 37.4
10:25 1020 30.12 849 25.07 13.3 55.9 50 3.2 37.7
10:30 1020 30.12 849 25.07 13.6 56.6 48 3 37.3
10:35 1020 30.12 849 25.07 13.4 56.1 50 3.2 37.7
10:40 1020 30.12 849 25.07 13.7 56.6 48 2.9 37.1
10:45 1020 30.12 849 25.07 14 57.2 49 3.5 38.3
10:50 1020 30.12 849 25.07 13.7 56.6 49 3.2 37.7
10:55 1020 30.12 849 25.07 13.8 56.8 49 3.2 37.8
11:00 1020 30.12 849 25.07 14.3 57.8 47 3.2 37.7
11:05 1020 30.12 849 25.07 14.5 58.2 47 3.5 38.2
11:10 1020 30.12 849 25.07 14.6 58.2 48 3.7 38.7
11:15 1020 30.12 849 25.07 14.2 57.5 48 3.4 38.1
11:20 1020 30.12 849 25.07 14.1 57.4 49 3.7 38.7
11:25 1020 30.12 849 25.07 13.7 56.7 50 3.6 38.4
11:30 1020 30.12 849 25.07 12.7 54.8 54 3.8 38.8
11:35 1020 30.12 849 25.07 12.9 55.2 52 3.5 38.2
11:40 1020 30.12 849 25.07 13.1 55.6 52 3.7 38.6
11:45 1020 30.12 849 25.07 13.3 55.9 53 4 39.3
11:50 1020 30.12 849 25.07 12.9 55.1 53 3.5 38.3
11:55 1020 30.12 849 25.07 12.9 55.2 54 3.8 38.8
12:00 1020 30.12 849 25.07 12.6 54.7 55 4 39.2
12:05 1020 30.12 849 25.07 12.4 54.3 57 4.1 39.3
12:10 1020 30.12 849 25.07 12.3 54.1 55 3.6 38.5
12:15 1020 30.12 849 25.07 12.8 55 55 4 39.3
12:20 1020 30.12 849 25.07 12.9 55.2 55 4.1 39.3
12:25 1020 30.12 849 25.07 13 55.4 55 4.1 39.4
12:30 1020 30.12 849 25.07 13.1 55.5 54 4.1 39.4
12:35 1020 30.12 849 25.07 13.2 55.8 55 4.3 39.8
12:40 1020 30.12 849 25.07 13.2 55.8 54 4.2 39.6
12:45 1020 30.12 849 25.07 13.3 55.9 54 4.3 39.8
12:50 1020 30.12 850 25.1 13.2 55.7 55 4.4 39.9
12:55 1020 30.12 850 25.1 13.2 55.7 55 4.5 40.2
13:00 1020 30.12 850 25.1 12.9 55.2 57 4.6 40.3
13:05 1021 30.15 850 25.1 13 55.3 54 4.1 39.3
13:10 1021 30.15 850 25.1 13.4 56.1 53 4.1 39.3
13:15 1021 30.15 850 25.1 13.6 56.4 53 4.2 39.6
13:20 1021 30.15 850 25.1 13.4 56.1 53 4 39.2
13:25 1021 30.15 850 25.1 13.5 56.4 51 3.8 38.8
13:30 1021 30.15 850 25.1 13.7 56.6 50 3.6 38.4
13:35 1021 30.15 850 25.1 13.6 56.5 50 3.3 38
13:40 1021 30.15 850 25.1 13.8 56.8 48 3.1 37.5
13:45 1020 30.12 850 25.1 13.9 57.1 49 3.5 38.2
13:50 1020 30.12 850 25.1 13.8 56.9 49 3.4 38.2
13:55 1021 30.15 850 25.1 14 57.2 48 3.2 37.8
14:00 1021 30.15 850 25.1 14 57.1 49 3.6 38.4
14:05 1021 30.15 850 25.1 13.5 56.3 49 3.2 37.7
14:10 1021 30.15 850 25.1 13.9 56.9 49 3.4 38
14:15 1021 30.15 850 25.1 13.8 56.8 49 3.5 38.3
14:20 1021 30.15 850 25.1 13.5 56.2 49 3.1 37.6
14:25 1021 30.15 850 25.1 13.4 56.2 50 3.2 37.7
14:30 1021 30.15 850 25.1 13.9 56.9 48 3 37.4
14:35 1021 30.15 850 25.1 14.1 57.3 47 2.9 37.3
14:40 1021 30.15 850 25.1 14.1 57.3 47 3.1 37.6
14:45 1021 30.15 850 25.1 13.9 57.1 48 3.2 37.7
14:50 1021 30.15 850 25.1 13.9 57 50 3.7 38.6
14:55 1021 30.15 850 25.1 14 57.2 49 3.5 38.3
15:00 1020 30.12 850 25.1 13.9 56.9 51 4 39.2
15:05 1020 30.12 850 25.1 13.4 56 52 3.7 38.6
15:10 1020 30.12 850 25.1 13.9 56.9 49 3.5 38.4
15:15 1020 30.12 850 25.1 14 57.2 49 3.5 38.2
15:20 1020 30.12 850 25.1 14.3 57.7 48 3.4 38.2
15:25 1020 30.12 850 25.1 13.9 56.9 51 3.8 38.9
15:30 1020 30.12 850 25.1 13.9 56.9 49 3.4 38.1
15:35 1020 30.12 850 25.1 14.4 57.8 47 3.2 37.8
15:40 1020 30.12 850 25.1 14.5 58.1 46 3.1 37.7
15:45 1021 30.15 850 25.1 14.5 58.1 47 3.4 38.1
15:50 1021 30.15 850 25.1 14.4 57.9 48 3.6 38.5
15:55 1021 30.15 850 25.1 14.4 57.9 47 3.2 37.7
16:00 1021 30.15 850 25.1 14.2 57.6 55 5.3 41.6
16:05 1021 30.15 850 25.1 12.6 54.7 70 7.4 45.3
16:10 1021 30.15 850 25.1 11.5 52.6 74 7 44.5
16:15 1021 30.15 850 25.1 11 51.9 72 6.2 43.2
16:20 1021 30.15 850 25.1 10.5 50.9 76 6.4 43.6
16:25 1021 30.15 850 25.1 10.1 50.2 79 6.7 44
16:30 1021 30.15 850 25.1 9.8 49.6 81 6.8 44.2
16:35 1021 30.15 850 25.1 9.7 49.5 82 6.8 44.2
16:40 1021 30.15 850 25.1 9.6 49.3 82 6.6 44
16:45 1021 30.15 850 25.1 9.6 49.2 82 6.6 43.8
16:50 1021 30.15 850 25.1 9.6 49.2 81 6.4 43.6
16:55 1021 30.15 850 25.1 9.7 49.5 79 6.3 43.4
17:00 1021 30.15 850 25.1 10 50 77 6.1 43
17:05 1021 30.15 850 25.1 10.3 50.5 75 6.1 43
17:10 1021 30.15 850 25.1 10.5 50.9 73 5.9 42.7
17:15 1021 30.15 850 25.1 10.5 50.8 75 6.3 43.4
17:20 1021 30.15 851 25.13 10.3 50.5 77 6.5 43.6
17:25 1021 30.15 851 25.13 10.3 50.5 76 6.2 43.1
17:30 1021 30.15 851 25.13 10.4 50.8 74 5.9 42.7
17:35 1021 30.15 851 25.13 10.6 51.1 72 5.7 42.3
17:40 1021 30.15 851 25.13 10.7 51.2 71 5.6 42.1
17:45 1021 30.15 851 25.13 10.6 51.1 70 5.5 41.9
17:50 1021 30.15 851 25.13 10.7 51.3 69 5.4 41.7
17:55 1021 30.15 851 25.13 11 51.7 69 5.5 41.8
18:00 1021 30.15 851 25.13 11.1 52 68 5.4 41.7
18:05 1021 30.15 851 25.13 11.3 52.3 68 5.6 42.1
18:10 1022 30.18 851 25.13 11.1 52 69 5.7 42.3
18:15 1022 30.18 851 25.13 10.9 51.6 69 5.4 41.8
18:20 1022 30.18 851 25.13 10.9 51.6 68 5.2 41.4
18:25 1022 30.18 851 25.13 10.9 51.5 68 5.2 41.4
18:30 1022 30.18 851 25.13 10.9 51.5 68 5.2 41.4
18:35 1022 30.18 851 25.13 10.8 51.5 69 5.4 41.7
18:40 1022 30.18 851 25.13 10.8 51.4 69 5.3 41.5
18:45 1022 30.18 851 25.13 10.9 51.6 68 5.3 41.6
18:50 1022 30.18 851 25.13 11 51.8 69 5.6 42.1
18:55 1022 30.18 851 25.13 11.1 51.9 69 5.6 42.1
19:00 1022 30.18 851 25.13 11.1 51.9 69 5.6 42.2
19:05 1022 30.18 851 25.13 11.1 51.9 67 5.3 41.5
19:10 1022 30.18 851 25.13 11.1 52 67 5.2 41.4
19:15 1022 30.18 851 25.13 11 51.7 68 5.3 41.5
19:20 1022 30.18 851 25.13 10.9 51.5 69 5.3 41.6
19:25 1022 30.18 851 25.13 10.9 51.5 69 5.4 41.7
19:30 1022 30.18 851 25.13 10.9 51.6 69 5.4 41.7
19:35 1022 30.18 851 25.13 10.9 51.5 69 5.4 41.7
19:40 1022 30.18 851 25.13 10.8 51.5 69 5.5 41.9
19:45 1022 30.18 851 25.13 10.7 51.3 69 5.2 41.3
19:50 1022 30.18 851 25.13 10.7 51.2 69 5.2 41.4
19:55 1022 30.18 851 25.13 10.7 51.3 67 4.9 40.9
20:00 1022 30.18 851 25.13 10.7 51.3 67 4.9 40.9
20:05 1022 30.18 851 25.13 10.7 51.3 67 5 41
20:10 1022 30.18 851 25.13 10.7 51.3 68 5 41
20:15 1022 30.18 852 25.16 10.6 51.1 68 4.9 40.9
20:20 1022 30.18 852 25.16 10.5 50.8 69 5 40.9
20:25 1022 30.18 852 25.16 10.3 50.6 67 4.6 40.3
20:30 1022 30.18 852 25.16 10.5 50.8 66 4.5 40.1
20:35 1023 30.21 852 25.16 10.5 50.9 67 4.6 40.3
20:40 1023 30.21 852 25.16 10.5 50.9 67 4.7 40.5
20:45 1023 30.21 852 25.16 10.5 50.8 68 4.9 40.7
20:50 1023 30.21 852 25.16 10.4 50.7 69 4.9 40.9
20:55 1023 30.21 852 25.16 10.3 50.5 69 4.8 40.7
21:00 1023 30.21 852 25.16 10.2 50.3 69 4.7 40.4
21:05 1023 30.21 852 25.16 10.2 50.3 67 4.4 40
21:10 1023 30.21 852 25.16 10.3 50.6 66 4.3 39.8
21:15 1023 30.21 852 25.16 10.4 50.7 66 4.3 39.8
21:20 1023 30.21 852 25.16 10.4 50.7 65 4.1 39.4
21:25 1023 30.21 852 25.16 10.4 50.7 66 4.4 39.8
21:30 1023 30.21 852 25.16 10.3 50.6 67 4.5 40.1
21:35 1023 30.21 852 25.16 10.4 50.6 66 4.3 39.7
21:40 1023 30.21 852 25.16 10.4 50.7 67 4.5 40.1
21:45 1023 30.21 852 25.16 10.3 50.5 66 4.3 39.8
21:50 1023 30.21 852 25.16 10.2 50.4 68 4.5 40.2
21:55 1023 30.21 852 25.16 10.1 50.2 68 4.5 40.2
22:00 1023 30.21 852 25.16 10 50 69 4.6 40.2
22:05 1023 30.21 852 25.16 9.9 49.8 70 4.7 40.5
22:10 1023 30.21 852 25.16 9.9 49.8 71 4.8 40.7
22:15 1023 30.21 852 25.16 9.8 49.7 71 4.9 40.8
22:20 1023 30.21 852 25.16 9.8 49.6 71 4.9 40.8
22:25 1023 30.21 852 25.16 9.7 49.5 74 5.3 41.5
22:30 1023 30.21 852 25.16 9.3 48.8 78 5.7 42.2
22:35 1023 30.21 852 25.16 9.1 48.4 78 5.5 41.9
22:40 1023 30.21 852 25.16 9.2 48.5 78 5.5 41.9
22:45 1023 30.21 852 25.16 9.1 48.4 76 5.2 41.4
22:50 1023 30.21 852 25.16 9.3 48.7 74 5 41
22:55 1023 30.21 852 25.16 9.5 49.2 72 4.8 40.6
23:00 1023 30.21 852 25.16 9.8 49.6 72 5.1 41.1
23:05 1023 30.21 852 25.16 9.7 49.5 74 5.3 41.5
23:10 1023 30.21 852 25.16 9.7 49.4 72 5 40.9
23:15 1023 30.21 852 25.16 9.7 49.4 71 4.8 40.6
23:20 1023 30.21 852 25.16 9.8 49.7 71 4.8 40.6
23:25 1023 30.21 852 25.16 9.9 49.9 70 4.6 40.4
23:30 1023 30.21 852 25.16 10 50 70 4.7 40.5
23:35 1023 30.21 852 25.16 10 50 69 4.7 40.4
23:40 1023 30.21 852 25.16 10 50 69 4.5 40.1
23:45 1023 30.21 852 25.16 10.1 50.2 67 4.4 39.8
23:50 1023 30.21 852 25.16 10.2 50.3 68 4.6 40.2
23:55 1023 30.21 852 25.16 10.2 50.3 67 4.4 39.8
24:00 1023 30.21 852 25.16 10.1 50.3 68 4.6 40.3